sensor_id;sensor_type;location;lat;lon;timestamp;P1;durP1;ratioP1;P2;durP2;ratioP2
12703;SDS011;6416;52.182;7.650;2022-10-30T00:01:57;9.02;;;4.10;;
12703;SDS011;6416;52.182;7.650;2022-10-30T00:04:23;7.75;;;4.38;;
12703;SDS011;6416;52.182;7.650;2022-10-30T00:06:48;7.32;;;4.35;;
12703;SDS011;6416;52.182;7.650;2022-10-30T00:09:14;7.25;;;4.65;;
12703;SDS011;6416;52.182;7.650;2022-10-30T00:11:40;9.90;;;4.50;;
12703;SDS011;6416;52.182;7.650;2022-10-30T00:14:06;6.53;;;4.40;;
12703;SDS011;6416;52.182;7.650;2022-10-30T00:16:32;7.25;;;4.57;;
12703;SDS011;6416;52.182;7.650;2022-10-30T00:18:58;5.20;;;4.10;;
12703;SDS011;6416;52.182;7.650;2022-10-30T00:21:23;6.72;;;3.97;;
12703;SDS011;6416;52.182;7.650;2022-10-30T00:23:49;8.23;;;4.00;;
12703;SDS011;6416;52.182;7.650;2022-10-30T00:26:17;10.93;;;5.03;;
12703;SDS011;6416;52.182;7.650;2022-10-30T00:28:48;8.65;;;4.13;;
12703;SDS011;6416;52.182;7.650;2022-10-30T00:31:14;5.85;;;3.85;;
12703;SDS011;6416;52.182;7.650;2022-10-30T00:33:40;8.98;;;4.03;;
12703;SDS011;6416;52.182;7.650;2022-10-30T00:36:05;9.60;;;4.57;;
12703;SDS011;6416;52.182;7.650;2022-10-30T00:38:31;5.93;;;3.63;;
12703;SDS011;6416;52.182;7.650;2022-10-30T00:40:57;5.57;;;3.75;;
12703;SDS011;6416;52.182;7.650;2022-10-30T00:46:47;4.38;;;3.92;;
12703;SDS011;6416;52.182;7.650;2022-10-30T00:48:49;11.02;;;4.70;;
12703;SDS011;6416;52.182;7.650;2022-10-30T00:51:36;7.53;;;3.80;;
12703;SDS011;6416;52.182;7.650;2022-10-30T00:54:05;8.60;;;4.25;;
12703;SDS011;6416;52.182;7.650;2022-10-30T00:56:32;6.72;;;4.00;;
12703;SDS011;6416;52.182;7.650;2022-10-30T00:59:00;6.35;;;3.80;;
12703;SDS011;6416;52.182;7.650;2022-10-30T01:01:38;8.25;;;3.83;;
12703;SDS011;6416;52.182;7.650;2022-10-30T01:04:05;7.30;;;4.70;;
12703;SDS011;6416;52.182;7.650;2022-10-30T01:06:32;7.95;;;3.97;;
12703;SDS011;6416;52.182;7.650;2022-10-30T01:09:01;8.02;;;3.60;;
12703;SDS011;6416;52.182;7.650;2022-10-30T01:11:28;7.32;;;4.30;;
12703;SDS011;6416;52.182;7.650;2022-10-30T01:13:54;7.57;;;4.15;;
12703;SDS011;6416;52.182;7.650;2022-10-30T01:27:03;5.60;;;3.72;;
12703;SDS011;6416;52.182;7.650;2022-10-30T01:29:45;5.40;;;3.95;;
12703;SDS011;6416;52.182;7.650;2022-10-30T01:38:30;4.90;;;3.75;;
12703;SDS011;6416;52.182;7.650;2022-10-30T01:40:59;4.75;;;3.72;;
12703;SDS011;6416;52.182;7.650;2022-10-30T01:43:25;4.78;;;3.40;;
12703;SDS011;6416;52.182;7.650;2022-10-30T01:51:25;5.35;;;3.80;;
12703;SDS011;6416;52.182;7.650;2022-10-30T02:01:49;5.47;;;3.80;;
12703;SDS011;6416;52.182;7.650;2022-10-30T02:04:18;6.35;;;4.32;;
12703;SDS011;6416;52.182;7.650;2022-10-30T02:06:43;7.57;;;3.92;;
12703;SDS011;6416;52.182;7.650;2022-10-30T02:09:09;7.75;;;3.92;;
12703;SDS011;6416;52.182;7.650;2022-10-30T02:11:35;8.15;;;3.85;;
12703;SDS011;6416;52.182;7.650;2022-10-30T02:14:04;5.22;;;3.58;;
12703;SDS011;6416;52.182;7.650;2022-10-30T02:16:32;8.38;;;3.92;;
12703;SDS011;6416;52.182;7.650;2022-10-30T02:19:01;4.38;;;3.70;;
12703;SDS011;6416;52.182;7.650;2022-10-30T02:21:26;8.32;;;4.30;;
12703;SDS011;6416;52.182;7.650;2022-10-30T02:23:52;4.28;;;3.50;;
12703;SDS011;6416;52.182;7.650;2022-10-30T02:26:17;7.18;;;4.03;;
12703;SDS011;6416;52.182;7.650;2022-10-30T02:28:43;7.03;;;3.47;;
12703;SDS011;6416;52.182;7.650;2022-10-30T02:31:08;6.82;;;3.50;;
12703;SDS011;6416;52.182;7.650;2022-10-30T02:33:34;4.70;;;3.42;;
12703;SDS011;6416;52.182;7.650;2022-10-30T02:35:59;6.72;;;3.63;;
12703;SDS011;6416;52.182;7.650;2022-10-30T02:38:25;8.52;;;3.90;;
12703;SDS011;6416;52.182;7.650;2022-10-30T02:40:50;9.30;;;4.20;;
12703;SDS011;6416;52.182;7.650;2022-10-30T02:43:16;3.95;;;3.55;;
12703;SDS011;6416;52.182;7.650;2022-10-30T02:45:41;7.88;;;3.65;;
12703;SDS011;6416;52.182;7.650;2022-10-30T02:48:06;4.10;;;3.35;;
12703;SDS011;6416;52.182;7.650;2022-10-30T02:50:32;6.18;;;3.55;;
12703;SDS011;6416;52.182;7.650;2022-10-30T02:52:58;9.00;;;4.38;;
12703;SDS011;6416;52.182;7.650;2022-10-30T02:55:23;5.97;;;4.13;;
12703;SDS011;6416;52.182;7.650;2022-10-30T02:57:49;5.30;;;4.13;;
12703;SDS011;6416;52.182;7.650;2022-10-30T03:00:14;6.55;;;4.05;;
12703;SDS011;6416;52.182;7.650;2022-10-30T03:02:40;6.45;;;3.58;;
12703;SDS011;6416;52.182;7.650;2022-10-30T03:05:05;9.15;;;3.63;;
12703;SDS011;6416;52.182;7.650;2022-10-30T03:07:31;6.75;;;3.90;;
12703;SDS011;6416;52.182;7.650;2022-10-30T03:09:56;6.22;;;3.70;;
12703;SDS011;6416;52.182;7.650;2022-10-30T03:12:22;6.55;;;3.38;;
12703;SDS011;6416;52.182;7.650;2022-10-30T03:14:47;9.68;;;4.75;;
12703;SDS011;6416;52.182;7.650;2022-10-30T03:17:13;7.82;;;4.30;;
12703;SDS011;6416;52.182;7.650;2022-10-30T03:19:38;7.90;;;3.70;;
12703;SDS011;6416;52.182;7.650;2022-10-30T03:22:04;8.50;;;3.63;;
12703;SDS011;6416;52.182;7.650;2022-10-30T03:24:29;9.27;;;4.05;;
12703;SDS011;6416;52.182;7.650;2022-10-30T03:26:54;7.93;;;3.78;;
12703;SDS011;6416;52.182;7.650;2022-10-30T03:29:20;6.88;;;3.83;;
12703;SDS011;6416;52.182;7.650;2022-10-30T03:31:45;8.18;;;4.05;;
12703;SDS011;6416;52.182;7.650;2022-10-30T03:34:11;4.63;;;3.70;;
12703;SDS011;6416;52.182;7.650;2022-10-30T03:36:36;6.40;;;3.78;;
12703;SDS011;6416;52.182;7.650;2022-10-30T03:39:02;6.00;;;4.03;;
12703;SDS011;6416;52.182;7.650;2022-10-30T03:41:28;7.20;;;4.30;;
12703;SDS011;6416;52.182;7.650;2022-10-30T03:43:53;5.23;;;4.00;;
12703;SDS011;6416;52.182;7.650;2022-10-30T03:46:19;5.88;;;4.05;;
12703;SDS011;6416;52.182;7.650;2022-10-30T03:48:47;9.03;;;4.00;;
12703;SDS011;6416;52.182;7.650;2022-10-30T03:51:13;5.03;;;3.50;;
12703;SDS011;6416;52.182;7.650;2022-10-30T03:53:38;5.37;;;3.43;;
12703;SDS011;6416;52.182;7.650;2022-10-30T03:56:04;6.77;;;3.20;;
12703;SDS011;6416;52.182;7.650;2022-10-30T03:58:30;7.60;;;3.83;;
12703;SDS011;6416;52.182;7.650;2022-10-30T04:00:59;5.27;;;4.00;;
12703;SDS011;6416;52.182;7.650;2022-10-30T04:03:25;6.40;;;3.90;;
12703;SDS011;6416;52.182;7.650;2022-10-30T04:05:51;5.50;;;3.60;;
12703;SDS011;6416;52.182;7.650;2022-10-30T04:08:17;7.73;;;3.93;;
12703;SDS011;6416;52.182;7.650;2022-10-30T04:10:43;6.80;;;3.90;;
12703;SDS011;6416;52.182;7.650;2022-10-30T04:13:09;7.13;;;3.70;;
12703;SDS011;6416;52.182;7.650;2022-10-30T04:15:36;6.07;;;4.00;;
12703;SDS011;6416;52.182;7.650;2022-10-30T04:18:02;9.10;;;4.40;;
12703;SDS011;6416;52.182;7.650;2022-10-30T04:20:28;8.43;;;3.73;;
12703;SDS011;6416;52.182;7.650;2022-10-30T04:22:58;8.67;;;4.20;;
12703;SDS011;6416;52.182;7.650;2022-10-30T04:25:25;8.18;;;4.00;;
12703;SDS011;6416;52.182;7.650;2022-10-30T04:27:51;5.45;;;4.15;;
12703;SDS011;6416;52.182;7.650;2022-10-30T04:30:17;4.30;;;3.60;;
12703;SDS011;6416;52.182;7.650;2022-10-30T04:32:46;7.00;;;4.47;;
12703;SDS011;6416;52.182;7.650;2022-10-30T04:35:13;7.83;;;3.93;;
12703;SDS011;6416;52.182;7.650;2022-10-30T04:37:39;5.60;;;3.70;;
12703;SDS011;6416;52.182;7.650;2022-10-30T04:40:05;8.30;;;4.20;;
12703;SDS011;6416;52.182;7.650;2022-10-30T04:42:31;5.20;;;3.97;;
12703;SDS011;6416;52.182;7.650;2022-10-30T04:44:57;7.43;;;3.70;;
12703;SDS011;6416;52.182;7.650;2022-10-30T04:47:22;7.17;;;3.47;;
12703;SDS011;6416;52.182;7.650;2022-10-30T04:49:47;4.30;;;3.20;;
12703;SDS011;6416;52.182;7.650;2022-10-30T04:52:13;6.03;;;4.27;;
12703;SDS011;6416;52.182;7.650;2022-10-30T04:54:38;5.40;;;3.83;;
12703;SDS011;6416;52.182;7.650;2022-10-30T04:57:04;5.77;;;3.90;;
12703;SDS011;6416;52.182;7.650;2022-10-30T04:59:29;5.87;;;3.90;;
12703;SDS011;6416;52.182;7.650;2022-10-30T05:01:55;5.90;;;3.53;;
12703;SDS011;6416;52.182;7.650;2022-10-30T05:04:20;7.63;;;4.37;;
12703;SDS011;6416;52.182;7.650;2022-10-30T05:06:46;5.40;;;3.97;;
12703;SDS011;6416;52.182;7.650;2022-10-30T05:09:11;5.90;;;3.70;;
12703;SDS011;6416;52.182;7.650;2022-10-30T05:11:37;7.70;;;4.10;;
12703;SDS011;6416;52.182;7.650;2022-10-30T05:14:02;4.67;;;3.47;;
12703;SDS011;6416;52.182;7.650;2022-10-30T05:16:28;4.40;;;3.70;;
12703;SDS011;6416;52.182;7.650;2022-10-30T05:18:53;4.80;;;3.47;;
12703;SDS011;6416;52.182;7.650;2022-10-30T05:21:18;7.17;;;4.30;;
12703;SDS011;6416;52.182;7.650;2022-10-30T05:23:44;7.13;;;3.63;;
12703;SDS011;6416;52.182;7.650;2022-10-30T05:26:10;7.23;;;4.07;;
12703;SDS011;6416;52.182;7.650;2022-10-30T05:28:36;9.47;;;4.13;;
12703;SDS011;6416;52.182;7.650;2022-10-30T05:31:01;7.30;;;4.00;;
12703;SDS011;6416;52.182;7.650;2022-10-30T05:33:27;4.73;;;4.23;;
12703;SDS011;6416;52.182;7.650;2022-10-30T05:35:52;6.17;;;3.63;;
12703;SDS011;6416;52.182;7.650;2022-10-30T05:38:18;5.87;;;4.07;;
12703;SDS011;6416;52.182;7.650;2022-10-30T05:40:44;5.80;;;3.90;;
12703;SDS011;6416;52.182;7.650;2022-10-30T05:43:10;8.67;;;4.00;;
12703;SDS011;6416;52.182;7.650;2022-10-30T05:45:36;5.33;;;3.90;;
12703;SDS011;6416;52.182;7.650;2022-10-30T05:48:02;5.80;;;4.17;;
12703;SDS011;6416;52.182;7.650;2022-10-30T05:50:30;8.37;;;4.07;;
12703;SDS011;6416;52.182;7.650;2022-10-30T05:53:01;5.20;;;3.97;;
12703;SDS011;6416;52.182;7.650;2022-10-30T05:55:28;5.80;;;4.03;;
12703;SDS011;6416;52.182;7.650;2022-10-30T05:57:54;5.03;;;3.77;;
12703;SDS011;6416;52.182;7.650;2022-10-30T06:00:21;5.77;;;4.23;;
12703;SDS011;6416;52.182;7.650;2022-10-30T06:02:46;5.90;;;4.47;;
12703;SDS011;6416;52.182;7.650;2022-10-30T06:05:12;6.23;;;4.17;;
12703;SDS011;6416;52.182;7.650;2022-10-30T06:07:37;8.17;;;3.70;;
12703;SDS011;6416;52.182;7.650;2022-10-30T06:10:03;8.00;;;4.20;;
12703;SDS011;6416;52.182;7.650;2022-10-30T06:12:29;8.73;;;4.07;;
12703;SDS011;6416;52.182;7.650;2022-10-30T06:14:54;4.97;;;3.60;;
12703;SDS011;6416;52.182;7.650;2022-10-30T06:17:20;9.53;;;5.50;;
12703;SDS011;6416;52.182;7.650;2022-10-30T06:19:45;13.83;;;8.97;;
12703;SDS011;6416;52.182;7.650;2022-10-30T06:22:10;8.20;;;4.80;;
12703;SDS011;6416;52.182;7.650;2022-10-30T06:24:36;9.03;;;4.90;;
12703;SDS011;6416;52.182;7.650;2022-10-30T06:27:01;7.10;;;4.00;;
12703;SDS011;6416;52.182;7.650;2022-10-30T06:29:27;8.10;;;5.37;;
12703;SDS011;6416;52.182;7.650;2022-10-30T06:31:52;7.57;;;4.80;;
12703;SDS011;6416;52.182;7.650;2022-10-30T06:34:18;4.60;;;3.50;;
12703;SDS011;6416;52.182;7.650;2022-10-30T06:36:43;9.10;;;6.30;;
12703;SDS011;6416;52.182;7.650;2022-10-30T06:39:09;6.13;;;4.40;;
12703;SDS011;6416;52.182;7.650;2022-10-30T06:41:34;4.50;;;3.43;;
12703;SDS011;6416;52.182;7.650;2022-10-30T06:44:00;4.23;;;3.40;;
12703;SDS011;6416;52.182;7.650;2022-10-30T06:46:25;5.73;;;3.53;;
12703;SDS011;6416;52.182;7.650;2022-10-30T06:48:50;5.00;;;3.97;;
12703;SDS011;6416;52.182;7.650;2022-10-30T06:51:16;6.87;;;4.20;;
12703;SDS011;6416;52.182;7.650;2022-10-30T06:53:42;7.17;;;3.93;;
12703;SDS011;6416;52.182;7.650;2022-10-30T06:56:08;4.93;;;4.43;;
12703;SDS011;6416;52.182;7.650;2022-10-30T06:58:34;10.20;;;3.90;;
12703;SDS011;6416;52.182;7.650;2022-10-30T07:00:59;7.67;;;4.40;;
12703;SDS011;6416;52.182;7.650;2022-10-30T07:03:25;7.83;;;4.27;;
12703;SDS011;6416;52.182;7.650;2022-10-30T07:05:50;4.97;;;3.67;;
12703;SDS011;6416;52.182;7.650;2022-10-30T07:08:16;7.23;;;4.87;;
12703;SDS011;6416;52.182;7.650;2022-10-30T07:10:41;8.50;;;4.60;;
12703;SDS011;6416;52.182;7.650;2022-10-30T07:13:07;8.83;;;4.53;;
12703;SDS011;6416;52.182;7.650;2022-10-30T07:15:33;7.10;;;4.87;;
12703;SDS011;6416;52.182;7.650;2022-10-30T07:17:59;5.07;;;3.83;;
12703;SDS011;6416;52.182;7.650;2022-10-30T07:20:26;7.77;;;4.60;;
12703;SDS011;6416;52.182;7.650;2022-10-30T07:22:53;6.30;;;4.13;;
12703;SDS011;6416;52.182;7.650;2022-10-30T07:25:18;8.53;;;4.43;;
12703;SDS011;6416;52.182;7.650;2022-10-30T07:27:45;7.33;;;4.43;;
12703;SDS011;6416;52.182;7.650;2022-10-30T07:30:16;5.33;;;4.10;;
12703;SDS011;6416;52.182;7.650;2022-10-30T07:32:44;7.53;;;4.00;;
12703;SDS011;6416;52.182;7.650;2022-10-30T07:35:10;5.50;;;3.90;;
12703;SDS011;6416;52.182;7.650;2022-10-30T07:37:37;4.67;;;4.20;;
12703;SDS011;6416;52.182;7.650;2022-10-30T07:40:03;5.50;;;4.10;;
12703;SDS011;6416;52.182;7.650;2022-10-30T07:42:29;12.97;;;7.00;;
12703;SDS011;6416;52.182;7.650;2022-10-30T07:44:55;6.23;;;4.10;;
12703;SDS011;6416;52.182;7.650;2022-10-30T07:47:21;5.23;;;4.10;;
12703;SDS011;6416;52.182;7.650;2022-10-30T07:49:46;9.73;;;5.10;;
12703;SDS011;6416;52.182;7.650;2022-10-30T07:52:12;8.37;;;5.20;;
12703;SDS011;6416;52.182;7.650;2022-10-30T07:54:37;7.53;;;5.43;;
12703;SDS011;6416;52.182;7.650;2022-10-30T07:57:03;6.35;;;5.35;;
12703;SDS011;6416;52.182;7.650;2022-10-30T07:59:28;8.98;;;5.43;;
12703;SDS011;6416;52.182;7.650;2022-10-30T08:01:54;6.22;;;4.85;;
12703;SDS011;6416;52.182;7.650;2022-10-30T08:04:19;9.05;;;4.80;;
12703;SDS011;6416;52.182;7.650;2022-10-30T08:06:45;10.93;;;5.72;;
12703;SDS011;6416;52.182;7.650;2022-10-30T08:09:10;11.00;;;7.43;;
12703;SDS011;6416;52.182;7.650;2022-10-30T08:11:36;10.15;;;6.10;;
12703;SDS011;6416;52.182;7.650;2022-10-30T08:14:01;7.15;;;5.25;;
12703;SDS011;6416;52.182;7.650;2022-10-30T08:16:27;6.80;;;4.97;;
12703;SDS011;6416;52.182;7.650;2022-10-30T08:18:52;10.25;;;5.75;;
12703;SDS011;6416;52.182;7.650;2022-10-30T08:21:18;8.38;;;5.38;;
12703;SDS011;6416;52.182;7.650;2022-10-30T08:23:44;6.00;;;4.32;;
12703;SDS011;6416;52.182;7.650;2022-10-30T08:26:09;7.95;;;4.03;;
12703;SDS011;6416;52.182;7.650;2022-10-30T08:28:35;5.63;;;3.65;;
12703;SDS011;6416;52.182;7.650;2022-10-30T08:31:00;7.63;;;4.50;;
12703;SDS011;6416;52.182;7.650;2022-10-30T08:33:27;6.32;;;4.00;;
12703;SDS011;6416;52.182;7.650;2022-10-30T08:35:53;5.25;;;4.13;;
12703;SDS011;6416;52.182;7.650;2022-10-30T08:38:20;5.03;;;4.07;;
12703;SDS011;6416;52.182;7.650;2022-10-30T08:40:46;5.38;;;4.00;;
12703;SDS011;6416;52.182;7.650;2022-10-30T08:43:13;6.22;;;4.38;;
12703;SDS011;6416;52.182;7.650;2022-10-30T08:45:39;6.80;;;3.60;;
12703;SDS011;6416;52.182;7.650;2022-10-30T08:48:05;4.60;;;3.53;;
12703;SDS011;6416;52.182;7.650;2022-10-30T08:50:33;8.77;;;3.72;;
12703;SDS011;6416;52.182;7.650;2022-10-30T08:53:00;6.85;;;4.57;;
12703;SDS011;6416;52.182;7.650;2022-10-30T08:55:29;8.95;;;3.80;;
12703;SDS011;6416;52.182;7.650;2022-10-30T08:57:56;4.55;;;3.63;;
12703;SDS011;6416;52.182;7.650;2022-10-30T09:00:22;8.25;;;3.63;;
12703;SDS011;6416;52.182;7.650;2022-10-30T09:02:47;6.97;;;3.55;;
12703;SDS011;6416;52.182;7.650;2022-10-30T09:05:13;7.63;;;3.67;;
12703;SDS011;6416;52.182;7.650;2022-10-30T09:07:38;6.68;;;3.72;;
12703;SDS011;6416;52.182;7.650;2022-10-30T09:10:04;5.45;;;3.45;;
12703;SDS011;6416;52.182;7.650;2022-10-30T09:12:30;6.25;;;3.78;;
12703;SDS011;6416;52.182;7.650;2022-10-30T09:14:55;4.93;;;3.35;;
12703;SDS011;6416;52.182;7.650;2022-10-30T09:17:21;6.47;;;3.35;;
12703;SDS011;6416;52.182;7.650;2022-10-30T09:19:46;5.72;;;3.70;;
12703;SDS011;6416;52.182;7.650;2022-10-30T09:22:12;8.80;;;3.70;;
12703;SDS011;6416;52.182;7.650;2022-10-30T09:24:37;5.57;;;3.60;;
12703;SDS011;6416;52.182;7.650;2022-10-30T09:27:03;10.60;;;4.10;;
12703;SDS011;6416;52.182;7.650;2022-10-30T09:29:28;6.65;;;3.47;;
12703;SDS011;6416;52.182;7.650;2022-10-30T09:31:54;4.95;;;3.40;;
12703;SDS011;6416;52.182;7.650;2022-10-30T09:34:19;9.48;;;4.18;;
12703;SDS011;6416;52.182;7.650;2022-10-30T09:36:45;11.57;;;3.92;;
12703;SDS011;6416;52.182;7.650;2022-10-30T09:39:10;5.55;;;3.53;;
12703;SDS011;6416;52.182;7.650;2022-10-30T10:06:33;4.72;;;3.13;;
12703;SDS011;6416;52.182;7.650;2022-10-30T10:09:05;5.63;;;3.28;;
12703;SDS011;6416;52.182;7.650;2022-10-30T10:11:39;6.97;;;4.03;;
12703;SDS011;6416;52.182;7.650;2022-10-30T10:17:00;6.72;;;3.38;;
12703;SDS011;6416;52.182;7.650;2022-10-30T10:19:31;6.32;;;3.47;;
12703;SDS011;6416;52.182;7.650;2022-10-30T10:22:02;6.85;;;3.55;;
12703;SDS011;6416;52.182;7.650;2022-10-30T10:24:49;6.28;;;3.20;;
12703;SDS011;6416;52.182;7.650;2022-10-30T10:33:54;11.70;;;3.10;;
12703;SDS011;6416;52.182;7.650;2022-10-30T10:36:32;7.93;;;3.10;;
12703;SDS011;6416;52.182;7.650;2022-10-30T10:39:22;6.20;;;3.13;;
12703;SDS011;6416;52.182;7.650;2022-10-30T10:44:54;7.93;;;2.78;;
12703;SDS011;6416;52.182;7.650;2022-10-30T10:50:40;5.63;;;3.08;;
12703;SDS011;6416;52.182;7.650;2022-10-30T10:53:21;5.75;;;2.92;;
12703;SDS011;6416;52.182;7.650;2022-10-30T10:55:53;5.38;;;3.42;;
12703;SDS011;6416;52.182;7.650;2022-10-30T11:01:12;5.50;;;2.97;;
12703;SDS011;6416;52.182;7.650;2022-10-30T11:06:24;7.80;;;3.47;;
12703;SDS011;6416;52.182;7.650;2022-10-30T11:08:53;5.03;;;3.28;;
12703;SDS011;6416;52.182;7.650;2022-10-30T11:11:35;7.10;;;3.50;;
12703;SDS011;6416;52.182;7.650;2022-10-30T11:14:01;8.63;;;3.40;;
12703;SDS011;6416;52.182;7.650;2022-10-30T11:19:02;10.57;;;3.70;;
12703;SDS011;6416;52.182;7.650;2022-10-30T11:21:33;12.18;;;3.22;;
12703;SDS011;6416;52.182;7.650;2022-10-30T11:24:03;6.25;;;3.10;;
12703;SDS011;6416;52.182;7.650;2022-10-30T11:32:23;4.60;;;2.70;;
12703;SDS011;6416;52.182;7.650;2022-10-30T11:37:33;6.18;;;2.78;;
12703;SDS011;6416;52.182;7.650;2022-10-30T11:40:22;6.50;;;2.80;;
12703;SDS011;6416;52.182;7.650;2022-10-30T11:42:49;7.43;;;3.13;;
12703;SDS011;6416;52.182;7.650;2022-10-30T11:45:19;5.32;;;2.80;;
12703;SDS011;6416;52.182;7.650;2022-10-30T11:47:49;4.30;;;2.78;;
12703;SDS011;6416;52.182;7.650;2022-10-30T11:52:51;8.38;;;3.00;;
12703;SDS011;6416;52.182;7.650;2022-10-30T11:57:51;5.18;;;2.65;;
12703;SDS011;6416;52.182;7.650;2022-10-30T12:00:24;5.10;;;3.05;;
12703;SDS011;6416;52.182;7.650;2022-10-30T12:02:52;5.38;;;3.00;;
12703;SDS011;6416;52.182;7.650;2022-10-30T12:08:09;6.25;;;2.83;;
12703;SDS011;6416;52.182;7.650;2022-10-30T12:10:44;4.20;;;2.92;;
12703;SDS011;6416;52.182;7.650;2022-10-30T12:13:13;9.30;;;3.00;;
12703;SDS011;6416;52.182;7.650;2022-10-30T12:15:40;8.13;;;3.03;;
12703;SDS011;6416;52.182;7.650;2022-10-30T12:18:07;6.15;;;2.80;;
12703;SDS011;6416;52.182;7.650;2022-10-30T12:20:45;8.75;;;3.55;;
12703;SDS011;6416;52.182;7.650;2022-10-30T12:23:16;5.68;;;2.83;;
12703;SDS011;6416;52.182;7.650;2022-10-30T12:25:45;7.10;;;3.05;;
12703;SDS011;6416;52.182;7.650;2022-10-30T12:28:13;6.15;;;2.80;;
12703;SDS011;6416;52.182;7.650;2022-10-30T12:30:48;11.52;;;4.47;;
12703;SDS011;6416;52.182;7.650;2022-10-30T12:36:02;8.55;;;2.92;;
12703;SDS011;6416;52.182;7.650;2022-10-30T12:43:33;8.55;;;3.10;;
12703;SDS011;6416;52.182;7.650;2022-10-30T12:46:43;9.23;;;3.58;;
12703;SDS011;6416;52.182;7.650;2022-10-30T12:49:02;6.68;;;3.28;;
12703;SDS011;6416;52.182;7.650;2022-10-30T12:54:46;5.82;;;3.08;;
12703;SDS011;6416;52.182;7.650;2022-10-30T12:57:19;5.82;;;3.03;;
12703;SDS011;6416;52.182;7.650;2022-10-30T13:00:01;8.60;;;3.20;;
12703;SDS011;6416;52.182;7.650;2022-10-30T13:02:44;9.32;;;3.95;;
12703;SDS011;6416;52.182;7.650;2022-10-30T13:10:42;7.35;;;3.20;;
12703;SDS011;6416;52.182;7.650;2022-10-30T13:16:15;6.32;;;3.00;;
12703;SDS011;6416;52.182;7.650;2022-10-30T13:18:51;5.05;;;2.75;;
12703;SDS011;6416;52.182;7.650;2022-10-30T13:21:22;6.47;;;3.13;;
12703;SDS011;6416;52.182;7.650;2022-10-30T13:24:04;6.47;;;3.17;;
12703;SDS011;6416;52.182;7.650;2022-10-30T13:26:45;6.47;;;3.17;;
12703;SDS011;6416;52.182;7.650;2022-10-30T13:29:24;6.85;;;3.15;;
12703;SDS011;6416;52.182;7.650;2022-10-30T13:35:01;7.53;;;3.28;;
12703;SDS011;6416;52.182;7.650;2022-10-30T13:37:56;5.35;;;2.92;;
12703;SDS011;6416;52.182;7.650;2022-10-30T13:43:24;8.63;;;3.33;;
12703;SDS011;6416;52.182;7.650;2022-10-30T13:51:44;4.78;;;2.80;;
12703;SDS011;6416;52.182;7.650;2022-10-30T13:54:22;5.30;;;3.05;;
12703;SDS011;6416;52.182;7.650;2022-10-30T13:56:53;7.13;;;3.83;;
12703;SDS011;6416;52.182;7.650;2022-10-30T13:59:25;6.43;;;3.03;;
12703;SDS011;6416;52.182;7.650;2022-10-30T14:05:22;6.13;;;3.20;;
12703;SDS011;6416;52.182;7.650;2022-10-30T14:07:53;6.63;;;3.22;;
12703;SDS011;6416;52.182;7.650;2022-10-30T14:13:27;4.40;;;2.92;;
12703;SDS011;6416;52.182;7.650;2022-10-30T14:16:10;5.60;;;2.60;;
12703;SDS011;6416;52.182;7.650;2022-10-30T14:18:59;7.13;;;3.17;;
12703;SDS011;6416;52.182;7.650;2022-10-30T14:21:28;6.05;;;2.95;;
12703;SDS011;6416;52.182;7.650;2022-10-30T14:24:00;6.72;;;2.92;;
12703;SDS011;6416;52.182;7.650;2022-10-30T14:26:27;9.55;;;4.10;;
12703;SDS011;6416;52.182;7.650;2022-10-30T14:28:53;7.90;;;3.25;;
12703;SDS011;6416;52.182;7.650;2022-10-30T14:31:31;5.32;;;3.13;;
12703;SDS011;6416;52.182;7.650;2022-10-30T14:33:58;9.38;;;3.20;;
12703;SDS011;6416;52.182;7.650;2022-10-30T14:36:25;7.03;;;3.10;;
12703;SDS011;6416;52.182;7.650;2022-10-30T14:41:40;5.80;;;2.70;;
12703;SDS011;6416;52.182;7.650;2022-10-30T14:44:34;5.10;;;2.80;;
12703;SDS011;6416;52.182;7.650;2022-10-30T14:58:33;7.43;;;3.58;;
12703;SDS011;6416;52.182;7.650;2022-10-30T15:06:33;5.88;;;2.90;;
12703;SDS011;6416;52.182;7.650;2022-10-30T15:09:19;5.75;;;2.63;;
12703;SDS011;6416;52.182;7.650;2022-10-30T15:12:25;4.50;;;2.60;;
12703;SDS011;6416;52.182;7.650;2022-10-30T15:15:10;5.47;;;2.45;;
12703;SDS011;6416;52.182;7.650;2022-10-30T15:17:39;6.60;;;2.88;;
12703;SDS011;6416;52.182;7.650;2022-10-30T15:20:19;8.75;;;2.60;;
12703;SDS011;6416;52.182;7.650;2022-10-30T15:22:48;11.00;;;3.10;;
12703;SDS011;6416;52.182;7.650;2022-10-30T15:25:18;7.28;;;3.15;;
12703;SDS011;6416;52.182;7.650;2022-10-30T15:27:47;5.82;;;3.08;;
12703;SDS011;6416;52.182;7.650;2022-10-30T15:30:23;5.00;;;2.72;;
12703;SDS011;6416;52.182;7.650;2022-10-30T15:32:50;5.30;;;3.30;;
12703;SDS011;6416;52.182;7.650;2022-10-30T15:35:20;5.55;;;3.35;;
12703;SDS011;6416;52.182;7.650;2022-10-30T15:40:25;5.15;;;3.55;;
12703;SDS011;6416;52.182;7.650;2022-10-30T15:42:52;5.03;;;3.25;;
12703;SDS011;6416;52.182;7.650;2022-10-30T15:45:20;8.52;;;3.40;;
12703;SDS011;6416;52.182;7.650;2022-10-30T15:48:18;4.47;;;3.60;;
12703;SDS011;6416;52.182;7.650;2022-10-30T15:51:21;7.05;;;3.35;;
12703;SDS011;6416;52.182;7.650;2022-10-30T15:53:50;6.97;;;3.03;;
12703;SDS011;6416;52.182;7.650;2022-10-30T15:56:21;4.03;;;3.08;;
12703;SDS011;6416;52.182;7.650;2022-10-30T15:58:50;10.07;;;3.50;;
12703;SDS011;6416;52.182;7.650;2022-10-30T16:01:31;3.70;;;3.08;;
12703;SDS011;6416;52.182;7.650;2022-10-30T16:03:57;7.63;;;3.65;;
12703;SDS011;6416;52.182;7.650;2022-10-30T16:06:24;6.25;;;2.95;;
12703;SDS011;6416;52.182;7.650;2022-10-30T16:08:56;9.40;;;3.80;;
12703;SDS011;6416;52.182;7.650;2022-10-30T16:11:23;6.65;;;3.55;;
12703;SDS011;6416;52.182;7.650;2022-10-30T16:13:49;5.57;;;2.83;;
12703;SDS011;6416;52.182;7.650;2022-10-30T16:16:23;4.90;;;3.00;;
12703;SDS011;6416;52.182;7.650;2022-10-30T16:18:52;7.82;;;4.28;;
12703;SDS011;6416;52.182;7.650;2022-10-30T16:21:21;7.25;;;4.32;;
12703;SDS011;6416;52.182;7.650;2022-10-30T16:23:49;6.88;;;3.97;;
12703;SDS011;6416;52.182;7.650;2022-10-30T16:26:33;7.30;;;3.05;;
12703;SDS011;6416;52.182;7.650;2022-10-30T16:29:01;8.88;;;3.80;;
12703;SDS011;6416;52.182;7.650;2022-10-30T16:31:37;7.60;;;4.15;;
12703;SDS011;6416;52.182;7.650;2022-10-30T16:34:04;10.65;;;3.83;;
12703;SDS011;6416;52.182;7.650;2022-10-30T16:36:34;7.80;;;3.28;;
12703;SDS011;6416;52.182;7.650;2022-10-30T16:39:00;5.82;;;3.60;;
12703;SDS011;6416;52.182;7.650;2022-10-30T16:41:27;5.60;;;3.17;;
12703;SDS011;6416;52.182;7.650;2022-10-30T16:49:48;7.85;;;3.83;;
12703;SDS011;6416;52.182;7.650;2022-10-30T16:52:24;10.85;;;4.22;;
12703;SDS011;6416;52.182;7.650;2022-10-30T16:55:12;5.03;;;3.10;;
12703;SDS011;6416;52.182;7.650;2022-10-30T16:57:44;9.13;;;3.55;;
12703;SDS011;6416;52.182;7.650;2022-10-30T17:00:19;10.10;;;3.35;;
12703;SDS011;6416;52.182;7.650;2022-10-30T17:02:47;8.70;;;3.10;;
12703;SDS011;6416;52.182;7.650;2022-10-30T17:07:56;6.47;;;3.38;;
12703;SDS011;6416;52.182;7.650;2022-10-30T17:16:20;5.78;;;3.25;;
12703;SDS011;6416;52.182;7.650;2022-10-30T17:18:46;7.03;;;3.45;;
12703;SDS011;6416;52.182;7.650;2022-10-30T17:21:13;6.82;;;3.80;;
12703;SDS011;6416;52.182;7.650;2022-10-30T17:23:43;6.13;;;3.78;;
12703;SDS011;6416;52.182;7.650;2022-10-30T17:26:13;6.68;;;4.25;;
12703;SDS011;6416;52.182;7.650;2022-10-30T17:28:42;9.88;;;3.47;;
12703;SDS011;6416;52.182;7.650;2022-10-30T17:33:43;7.45;;;3.75;;
12703;SDS011;6416;52.182;7.650;2022-10-30T17:36:12;5.22;;;3.55;;
12703;SDS011;6416;52.182;7.650;2022-10-30T17:38:37;8.45;;;3.75;;
12703;SDS011;6416;52.182;7.650;2022-10-30T17:41:08;8.07;;;3.55;;
12703;SDS011;6416;52.182;7.650;2022-10-30T17:43:47;7.88;;;4.22;;
12703;SDS011;6416;52.182;7.650;2022-10-30T17:46:17;4.70;;;3.67;;
12703;SDS011;6416;52.182;7.650;2022-10-30T17:48:42;6.55;;;3.85;;
12703;SDS011;6416;52.182;7.650;2022-10-30T17:51:10;5.43;;;3.80;;
12703;SDS011;6416;52.182;7.650;2022-10-30T17:53:37;7.85;;;4.30;;
12703;SDS011;6416;52.182;7.650;2022-10-30T17:56:04;8.93;;;4.20;;
12703;SDS011;6416;52.182;7.650;2022-10-30T17:58:37;5.07;;;3.60;;
12703;SDS011;6416;52.182;7.650;2022-10-30T18:01:02;13.10;;;4.78;;
12703;SDS011;6416;52.182;7.650;2022-10-30T18:03:28;8.93;;;4.93;;
12703;SDS011;6416;52.182;7.650;2022-10-30T18:05:53;9.73;;;5.28;;